Terminal Aerodrome Forecast
Issued by NWS Charleston, WV

Current Version | Previous Version | Graphics & Text | Print | Product List | Glossary On
Versions: 1 2 3 4 5 6 7 8 9 10 11 12 13 14 15 16 17 18 19 20 21 22 23 24
000
FTUS41 KRLX 270148 AAA
TAFPKB
TAF AMD
KPKB 270148Z 2702/2724 19005KT P6SM -SHRA SCT035 OVC045
      TEMPO 2702/2704 6SM SHRA BKN035
     FM270600 20004KT P6SM SCT025 BKN040
     FM270800 17003KT P6SM BKN020
     FM271400 19008KT P6SM BKN040=

USA.gov is the U.S. government's official web portal to all federal, state and local government web resources and services.